KRCR

Details ICAO KRCR
Name FULTON CO
Region United States
Timezone America/Indiana/Indianapolis (UTC-4.0)
Plans Departing 0
Arriving 2
Stats Elevation 790 ft / 241 m (AMSL)
Location 41.065548° -86.181704°
Runways 1
Magnetic Variation 4.954° W
Sunrise 2018-05-21 10:22:54 UTC / 2018-05-21 06:22:54 Local
Sunset 2018-05-22 01:02:37 UTC / 2018-05-21 21:02:37 Local
Advertisement - Login to hide

Runways

ID Width Length Bearing (true) Bearing (mag) Surface Threshold Offset Overrun Length
11 75 ft / 23 m 4,990 ft / 1,521 m 105.15° 110.10° Asphalt 0 ft / 0 m 0 ft / 0 m
29 75 ft / 23 m 4,990 ft / 1,521 m 285.16° 290.11° Asphalt 0 ft / 0 m 0 ft / 0 m

Map

Weather


0- 5 10 15 20 25 30 35+ Temperature / ° C

Clouds and Precipitation
Forecast for 2018-05-21 18:00 UTC. Updated 2 hours ago

Ground ~20,000 ft ~40,000 ft Winds

METAR

KRCR 211915Z AUTO 11006KT 10SM SCT060 20/17 A3010 RMK AO2 LTG DSNT NE

TAF

Not found

Frequencies

Recorded 118.77 MHz AWOS 3
Approach 132.05 MHz SOUTH BEND APP/DEP
Unicom 122.70 MHz CTAF/UNICOM
Warning: Do not use this data for real-world aviation or navigation. No guarantee of current accuracy is given.